createdAt,value
2019-04-11T00:00:17.460Z,2.10
2019-04-11T00:05:21.319Z,2.10
2019-04-11T00:10:26.032Z,2.00
2019-04-11T00:15:30.712Z,1.90
2019-04-11T00:20:34.537Z,1.90
2019-04-11T00:25:38.239Z,1.80
2019-04-11T00:30:42.160Z,1.70
2019-04-11T00:35:46.106Z,1.60
2019-04-11T00:40:49.854Z,1.50
2019-04-11T00:45:54.070Z,1.40
2019-04-11T00:50:57.977Z,1.30
2019-04-11T00:56:02.258Z,1.20
2019-04-11T01:01:07.188Z,1.00
2019-04-11T01:06:12.195Z,0.90
2019-04-11T01:11:16.151Z,0.80
2019-04-11T01:16:28.358Z,0.80
2019-04-11T01:21:32.793Z,0.70
2019-04-11T01:26:41.330Z,0.50
2019-04-11T01:31:46.569Z,0.40
2019-04-11T01:36:51.213Z,0.30
2019-04-11T01:41:55.290Z,0.20
2019-04-11T01:46:59.306Z,0.10
2019-04-11T01:52:04.737Z,-0.10
2019-04-11T01:57:09.730Z,-0.20
2019-04-11T02:02:36.806Z,-0.30
2019-04-11T02:07:40.684Z,-0.40
2019-04-11T02:12:45.572Z,-0.60
2019-04-11T02:17:59.425Z,-0.60
2019-04-11T02:23:23.968Z,-0.60
2019-04-11T02:28:28.697Z,-0.90
2019-04-11T02:33:32.932Z,-0.90
2019-04-11T02:38:48.759Z,-0.80
2019-04-11T02:43:51.606Z,-0.80
2019-04-11T02:48:56.777Z,-0.90
2019-04-11T02:54:02.242Z,-0.90
2019-04-11T02:59:07.241Z,-1.00
2019-04-11T03:04:12.745Z,-1.10
2019-04-11T03:09:17.729Z,-1.20
2019-04-11T03:14:23.302Z,-1.20
2019-04-11T03:19:42.581Z,-1.20
2019-04-11T03:24:35.855Z,-1.10
2019-04-11T03:29:40.638Z,-1.20
2019-04-11T03:35:45.760Z,-1.10
2019-04-11T03:40:13.173Z,-1.10
2019-04-11T03:45:22.669Z,-1.10
2019-04-11T03:50:08.358Z,-1.10
2019-04-11T03:55:08.731Z,-1.20
2019-04-11T04:00:14.863Z,-1.20
2019-04-11T04:05:24.445Z,-1.20
2019-04-11T04:10:31.812Z,-1.20
2019-04-11T04:16:04.193Z,-1.10
2019-04-11T04:21:22.688Z,-1.30
2019-04-11T04:26:26.969Z,-1.20
2019-04-11T04:31:32.779Z,-1.30
2019-04-11T04:36:37.862Z,-1.30
2019-04-11T04:41:49.482Z,-1.20
2019-04-11T04:47:03.181Z,-1.10
2019-04-11T04:51:55.671Z,-0.20
2019-04-11T04:57:00.954Z,0.70
2019-04-11T05:02:06.609Z,1.70
2019-04-11T05:07:11.676Z,1.70
2019-04-11T05:12:16.239Z,1.70
2019-04-11T05:17:20.159Z,2.30
2019-04-11T05:22:24.656Z,2.70
2019-04-11T05:27:29.323Z,3.00
2019-04-11T05:32:33.460Z,3.40
2019-04-11T05:37:37.865Z,2.90
2019-04-11T05:42:41.775Z,3.00
2019-04-11T05:47:49.309Z,2.90
2019-04-11T05:52:52.474Z,2.90
2019-04-11T05:57:56.969Z,3.10
2019-04-11T06:03:03.782Z,3.00
2019-04-11T06:08:09.940Z,2.80
2019-04-11T06:13:20.594Z,2.60
2019-04-11T06:18:45.053Z,2.50
2019-04-11T06:24:14.094Z,2.70
2019-04-11T06:29:26.422Z,2.70
2019-04-11T06:34:30.434Z,2.50
2019-04-11T06:39:39.572Z,2.50
2019-04-11T06:45:02.164Z,2.40
2019-04-11T06:50:17.887Z,2.50
2019-04-11T06:55:39.572Z,3.00
2019-04-11T07:00:47.512Z,3.30
2019-04-11T07:05:53.129Z,3.30
2019-04-11T07:11:01.616Z,3.50
2019-04-11T07:16:05.360Z,3.90
2019-04-11T07:21:10.943Z,3.90
2019-04-11T07:26:46.244Z,3.90
2019-04-11T07:32:09.762Z,4.20
2019-04-11T07:37:26.487Z,4.10
2019-04-11T07:42:43.470Z,3.80
2019-04-11T07:47:52.759Z,3.70
2019-04-11T07:53:01.315Z,3.60
2019-04-11T07:58:22.296Z,3.50
2019-04-11T08:03:44.660Z,3.50
2019-04-11T08:09:07.563Z,3.70
2019-04-11T08:14:24.563Z,3.60
2019-04-11T08:19:47.587Z,4.00
2019-04-11T08:24:58.725Z,4.10
2019-04-11T08:30:02.733Z,4.00
2019-04-11T08:35:16.018Z,3.90
2019-04-11T08:40:19.917Z,4.10
2019-04-11T08:45:25.748Z,4.30
2019-04-11T08:50:32.718Z,4.50
2019-04-11T08:55:48.882Z,4.50
2019-04-11T09:00:59.306Z,4.50
2019-04-11T09:06:08.317Z,4.50
2019-04-11T09:11:24.765Z,4.50
2019-04-11T09:16:52.639Z,4.70
2019-04-11T09:22:15.122Z,4.80
2019-04-11T09:27:47.385Z,4.70
2019-04-11T09:33:13.278Z,4.10
2019-04-11T09:38:18.189Z,4.20
2019-04-11T09:43:26.166Z,3.90
2019-04-11T09:48:46.320Z,3.90
2019-04-11T09:53:55.028Z,4.30
2019-04-11T09:59:02.323Z,4.50
2019-04-11T10:04:06.658Z,4.90
2019-04-11T10:09:11.471Z,4.50
2019-04-11T10:14:17.632Z,4.40
2019-04-11T10:19:31.832Z,4.20
2019-04-11T10:25:10.711Z,4.50
2019-04-11T10:30:51.935Z,5.10
2019-04-11T10:36:18.974Z,5.40
2019-04-11T10:41:37.850Z,6.40
2019-04-11T10:46:53.540Z,6.10
2019-04-11T10:52:07.675Z,5.80
2019-04-11T10:57:24.912Z,5.50
2019-04-11T11:03:04.313Z,5.70
2019-04-11T11:08:15.360Z,5.50
2019-04-11T11:13:44.331Z,5.40
2019-04-11T11:19:33.730Z,5.10
2019-04-11T11:24:40.623Z,5.30
2019-04-11T11:30:06.691Z,5.30
2019-04-11T11:35:45.796Z,5.10
2019-04-11T11:41:18.457Z,5.20
2019-04-11T11:46:44.657Z,5.40
2019-04-11T11:52:11.277Z,5.90
2019-04-11T11:57:20.728Z,6.20
2019-04-11T12:02:32.726Z,6.00
2019-04-11T12:07:41.052Z,5.50
2019-04-11T12:13:10.837Z,5.50
2019-04-11T12:18:30.290Z,5.40
2019-04-11T12:24:01.205Z,5.40
2019-04-11T12:29:12.339Z,5.10
2019-04-11T12:34:32.384Z,5.10
2019-04-11T12:39:55.679Z,5.10
2019-04-11T12:45:37.156Z,5.10
2019-04-11T12:50:58.760Z,5.20
2019-04-11T12:56:20.525Z,5.00
2019-04-11T13:01:43.007Z,4.90
2019-04-11T13:07:14.955Z,4.80
2019-04-11T13:12:36.543Z,4.80
2019-04-11T13:17:43.215Z,4.90
2019-04-11T13:22:47.813Z,5.10
2019-04-11T13:27:54.870Z,5.10
2019-04-11T13:33:00.848Z,5.10
2019-04-11T13:38:17.298Z,4.80
2019-04-11T13:43:37.283Z,4.90
2019-04-11T13:48:58.378Z,4.70
2019-04-11T13:54:20.540Z,4.70
2019-04-11T13:59:42.479Z,4.80
2019-04-11T14:04:47.365Z,4.70
2019-04-11T14:09:52.606Z,4.50
2019-04-11T14:15:06.130Z,4.30
2019-04-11T14:20:29.090Z,5.40
2019-04-11T14:25:52.069Z,4.10
2019-04-11T14:31:09.944Z,4.00
2019-04-11T14:36:33.686Z,4.00
2019-04-11T14:41:46.481Z,3.80
2019-04-11T14:47:06.628Z,3.80
2019-04-11T14:52:26.966Z,3.80
2019-04-11T14:57:54.840Z,3.60
2019-04-11T15:03:09.531Z,3.50
2019-04-11T15:08:17.668Z,3.50
2019-04-11T15:13:24.219Z,3.50
2019-04-11T15:18:28.143Z,3.50
2019-04-11T15:23:37.545Z,3.50
2019-04-11T15:29:02.383Z,3.30
2019-04-11T15:34:24.011Z,3.40
2019-04-11T15:39:48.008Z,3.30
2019-04-11T15:45:13.543Z,3.40
2019-04-11T15:50:35.695Z,3.40
2019-04-11T15:55:48.677Z,3.40
2019-04-11T16:01:07.794Z,3.50
2019-04-11T16:06:38.989Z,3.60
2019-04-11T16:12:07.559Z,3.50
2019-04-11T16:17:33.493Z,3.50
2019-04-11T16:23:05.576Z,3.50
2019-04-11T16:28:27.136Z,3.50
2019-04-11T16:33:46.158Z,3.50
2019-04-11T16:39:07.268Z,3.50
2019-04-11T16:44:15.354Z,3.40
2019-04-11T16:49:19.148Z,3.40
2019-04-11T16:54:23.279Z,3.40
2019-04-11T16:59:27.510Z,3.30
2019-04-11T17:04:31.324Z,3.30
2019-04-11T17:09:39.718Z,3.30
2019-04-11T17:14:43.821Z,3.30
2019-04-11T17:19:48.614Z,3.20
2019-04-11T17:24:53.467Z,3.20
2019-04-11T17:29:57.448Z,3.20
2019-04-11T17:35:02.026Z,3.20
2019-04-11T17:40:07.618Z,3.20
2019-04-11T17:45:11.588Z,3.10
2019-04-11T17:50:15.428Z,3.10
2019-04-11T17:55:19.363Z,3.10
2019-04-11T18:00:29.508Z,3.00
2019-04-11T18:05:32.232Z,3.00
2019-04-11T18:10:36.111Z,3.00
2019-04-11T18:15:40.189Z,3.00
2019-04-11T18:20:44.106Z,2.90
2019-04-11T18:25:48.859Z,2.90
2019-04-11T18:30:54.019Z,2.90
2019-04-11T18:36:01.988Z,2.90
2019-04-11T18:41:05.235Z,2.80
2019-04-11T18:46:09.449Z,2.80
2019-04-11T18:51:13.260Z,2.80
2019-04-11T18:56:17.007Z,2.80
2019-04-11T19:01:26.883Z,2.80
2019-04-11T19:06:30.756Z,2.70
2019-04-11T19:11:34.509Z,2.70
2019-04-11T19:16:38.365Z,2.70
2019-04-11T19:21:42.163Z,2.70
2019-04-11T19:26:47.018Z,2.70
2019-04-11T19:31:50.842Z,2.60
2019-04-11T19:36:54.779Z,2.60
2019-04-11T19:41:59.056Z,2.60
2019-04-11T19:47:08.559Z,2.50
2019-04-11T19:52:12.382Z,2.50
2019-04-11T19:57:16.250Z,2.50
2019-04-11T20:02:23.134Z,2.50
2019-04-11T20:07:30.110Z,2.40
2019-04-11T20:12:34.128Z,2.40
2019-04-11T20:17:44.142Z,2.40
2019-04-11T20:22:43.831Z,2.40
2019-04-11T20:27:48.183Z,2.30
2019-04-11T20:32:53.183Z,2.30
2019-04-11T20:37:57.025Z,2.30
2019-04-11T20:43:00.768Z,2.30
2019-04-11T20:48:04.517Z,2.20
2019-04-11T20:53:13.084Z,2.20
2019-04-11T20:58:14.022Z,2.20
2019-04-11T21:03:17.806Z,2.20
2019-04-11T21:08:21.646Z,2.10
2019-04-11T21:13:25.643Z,2.10
2019-04-11T21:18:29.440Z,2.10
2019-04-11T21:23:33.218Z,2.10
2019-04-11T21:28:37.282Z,2.10
2019-04-11T21:33:41.024Z,2.00
2019-04-11T21:38:44.833Z,2.10
2019-04-11T21:43:48.807Z,2.00
2019-04-11T21:48:52.567Z,2.00
2019-04-11T21:53:56.291Z,2.00
2019-04-11T21:59:00.011Z,2.00
2019-04-11T22:04:03.910Z,2.00
2019-04-11T22:09:09.177Z,2.00
2019-04-11T22:14:12.898Z,1.90
2019-04-11T22:19:16.634Z,1.90
2019-04-11T22:24:20.551Z,1.90
2019-04-11T22:29:25.061Z,1.90
2019-04-11T22:34:56.755Z,1.90
2019-04-11T22:40:02.109Z,1.90
2019-04-11T22:45:08.509Z,1.90
2019-04-11T22:50:12.439Z,1.80
2019-04-11T22:55:16.163Z,1.80
2019-04-11T23:00:20.012Z,1.80
2019-04-11T23:05:23.735Z,1.80
2019-04-11T23:10:28.557Z,1.80
2019-04-11T23:15:32.454Z,1.80
2019-04-11T23:20:36.187Z,1.80
2019-04-11T23:25:39.896Z,1.80
2019-04-11T23:30:49.494Z,1.80
2019-04-11T23:35:51.174Z,1.80
2019-04-11T23:40:55.474Z,1.70
2019-04-11T23:45:59.288Z,1.80
2019-04-11T23:51:03.266Z,1.70
2019-04-11T23:56:07.249Z,1.70
